sensor_id;sensor_type;location;lat;lon;timestamp;pressure;altitude;pressure_sealevel;temperature;humidity
29197;BME280;62796;42.654;23.316;2023-06-22T00:01:08;95001.75;;;22.44;49.27
29197;BME280;62796;42.654;23.316;2023-06-22T00:03:34;94995.34;;;22.43;49.03
29197;BME280;62796;42.654;23.316;2023-06-22T00:05:59;94997.16;;;22.33;49.37
29197;BME280;62796;42.654;23.316;2023-06-22T00:08:24;94993.31;;;22.23;49.51
29197;BME280;62796;42.654;23.316;2023-06-22T00:10:50;94996.13;;;22.23;49.46
29197;BME280;62796;42.654;23.316;2023-06-22T00:13:16;94994.41;;;22.20;49.76
29197;BME280;62796;42.654;23.316;2023-06-22T00:15:42;94993.59;;;22.12;50.13
29197;BME280;62796;42.654;23.316;2023-06-22T00:18:09;94989.41;;;22.05;50.23
29197;BME280;62796;42.654;23.316;2023-06-22T00:20:35;94991.47;;;22.05;50.14
29197;BME280;62796;42.654;23.316;2023-06-22T00:23:05;94978.78;;;21.98;50.45
29197;BME280;62796;42.654;23.316;2023-06-22T00:25:40;94983.72;;;21.98;50.96
29197;BME280;62796;42.654;23.316;2023-06-22T00:28:06;94969.38;;;21.96;51.17
29197;BME280;62796;42.654;23.316;2023-06-22T00:30:32;94966.56;;;21.96;51.38
29197;BME280;62796;42.654;23.316;2023-06-22T00:32:58;94967.88;;;21.95;51.41
29197;BME280;62796;42.654;23.316;2023-06-22T00:35:24;94971.81;;;21.92;51.46
29197;BME280;62796;42.654;23.316;2023-06-22T00:37:55;94968.97;;;21.92;51.39
29197;BME280;62796;42.654;23.316;2023-06-22T00:40:29;94965.94;;;21.90;51.53
29197;BME280;62796;42.654;23.316;2023-06-22T00:42:56;94961.38;;;21.87;51.18
29197;BME280;62796;42.654;23.316;2023-06-22T00:45:22;94966.03;;;21.84;51.15
29197;BME280;62796;42.654;23.316;2023-06-22T00:47:55;94961.72;;;21.83;51.11
29197;BME280;62796;42.654;23.316;2023-06-22T00:50:22;94969.97;;;21.81;51.33
29197;BME280;62796;42.654;23.316;2023-06-22T00:52:53;94974.22;;;21.75;51.04
29197;BME280;62796;42.654;23.316;2023-06-22T00:55:22;94961.22;;;21.72;50.85
29197;BME280;62796;42.654;23.316;2023-06-22T00:57:48;94971.06;;;21.78;51.32
29197;BME280;62796;42.654;23.316;2023-06-22T01:00:14;94969.16;;;21.73;51.91
29197;BME280;62796;42.654;23.316;2023-06-22T01:02:45;94968.19;;;21.71;51.99
29197;BME280;62796;42.654;23.316;2023-06-22T01:05:14;94968.22;;;21.58;52.35
29197;BME280;62796;42.654;23.316;2023-06-22T01:10:30;94979.38;;;21.63;52.82
29197;BME280;62796;42.654;23.316;2023-06-22T01:13:03;94979.50;;;21.58;52.76
29197;BME280;62796;42.654;23.316;2023-06-22T01:18:35;94986.91;;;21.47;53.04
29197;BME280;62796;42.654;23.316;2023-06-22T01:21:04;94984.97;;;21.42;53.19
29197;BME280;62796;42.654;23.316;2023-06-22T01:29:20;94977.75;;;21.21;51.38
29197;BME280;62796;42.654;23.316;2023-06-22T01:31:48;94988.06;;;21.18;51.61
29197;BME280;62796;42.654;23.316;2023-06-22T01:34:17;94993.28;;;21.14;51.83
29197;BME280;62796;42.654;23.316;2023-06-22T01:36:44;94995.88;;;21.12;52.02
29197;BME280;62796;42.654;23.316;2023-06-22T01:39:11;94972.47;;;21.04;52.19
29197;BME280;62796;42.654;23.316;2023-06-22T01:41:39;94988.75;;;21.11;52.43
29197;BME280;62796;42.654;23.316;2023-06-22T01:44:07;94996.31;;;21.16;52.42
29197;BME280;62796;42.654;23.316;2023-06-22T01:46:34;94997.41;;;21.13;52.54
29197;BME280;62796;42.654;23.316;2023-06-22T01:49:02;94994.56;;;21.13;52.53
29197;BME280;62796;42.654;23.316;2023-06-22T01:51:29;94988.81;;;21.06;52.89
29197;BME280;62796;42.654;23.316;2023-06-22T01:53:55;94989.28;;;20.96;53.07
29197;BME280;62796;42.654;23.316;2023-06-22T01:56:20;95002.34;;;20.94;53.19
29197;BME280;62796;42.654;23.316;2023-06-22T01:58:51;94998.91;;;20.88;53.26
29197;BME280;62796;42.654;23.316;2023-06-22T02:01:24;95003.88;;;20.82;53.68
29197;BME280;62796;42.654;23.316;2023-06-22T02:04:04;95003.88;;;20.82;53.70
29197;BME280;62796;42.654;23.316;2023-06-22T02:06:37;95007.47;;;20.82;53.59
29197;BME280;62796;42.654;23.316;2023-06-22T02:09:12;95009.50;;;20.82;53.59
29197;BME280;62796;42.654;23.316;2023-06-22T02:11:41;95015.91;;;20.82;53.59
29197;BME280;62796;42.654;23.316;2023-06-22T02:14:08;95015.69;;;20.80;53.50
29197;BME280;62796;42.654;23.316;2023-06-22T02:16:33;95010.84;;;20.81;53.44
29197;BME280;62796;42.654;23.316;2023-06-22T02:19:02;94990.47;;;20.75;53.12
29197;BME280;62796;42.654;23.316;2023-06-22T02:21:31;94990.03;;;20.71;53.31
29197;BME280;62796;42.654;23.316;2023-06-22T02:23:57;94989.63;;;20.67;53.46
29197;BME280;62796;42.654;23.316;2023-06-22T02:26:24;94996.75;;;20.68;53.62
29197;BME280;62796;42.654;23.316;2023-06-22T02:28:50;94996.53;;;20.53;54.06
29197;BME280;62796;42.654;23.316;2023-06-22T02:31:15;95008.66;;;20.48;54.48
29197;BME280;62796;42.654;23.316;2023-06-22T02:33:41;95001.38;;;20.39;54.78
29197;BME280;62796;42.654;23.316;2023-06-22T02:36:06;94994.78;;;20.36;54.80
29197;BME280;62796;42.654;23.316;2023-06-22T02:38:34;94997.81;;;20.38;54.99
29197;BME280;62796;42.654;23.316;2023-06-22T02:41:01;95003.44;;;20.38;54.85
29197;BME280;62796;42.654;23.316;2023-06-22T02:43:27;95002.72;;;20.19;55.35
29197;BME280;62796;42.654;23.316;2023-06-22T02:45:53;95008.03;;;20.23;55.24
29197;BME280;62796;42.654;23.316;2023-06-22T02:48:18;95002.13;;;20.26;55.25
29197;BME280;62796;42.654;23.316;2023-06-22T02:50:44;95001.03;;;20.29;54.93
29197;BME280;62796;42.654;23.316;2023-06-22T02:53:09;94996.50;;;20.26;55.06
29197;BME280;62796;42.654;23.316;2023-06-22T02:55:35;95008.63;;;20.34;54.96
29197;BME280;62796;42.654;23.316;2023-06-22T02:58:00;95004.72;;;20.37;54.87
29197;BME280;62796;42.654;23.316;2023-06-22T03:00:30;94997.69;;;20.31;55.15
29197;BME280;62796;42.654;23.316;2023-06-22T03:02:57;95010.59;;;20.39;55.08
29197;BME280;62796;42.654;23.316;2023-06-22T03:05:22;95002.34;;;20.41;55.44
29197;BME280;62796;42.654;23.316;2023-06-22T03:07:48;95011.31;;;20.40;55.36
29197;BME280;62796;42.654;23.316;2023-06-22T03:10:14;95005.81;;;20.34;55.42
29197;BME280;62796;42.654;23.316;2023-06-22T03:12:41;95011.22;;;20.32;55.83
29197;BME280;62796;42.654;23.316;2023-06-22T03:15:08;95025.75;;;20.36;55.87
29197;BME280;62796;42.654;23.316;2023-06-22T03:17:34;95022.16;;;20.36;55.88
29197;BME280;62796;42.654;23.316;2023-06-22T03:20:02;95028.22;;;20.40;56.09
29197;BME280;62796;42.654;23.316;2023-06-22T03:22:41;95036.56;;;20.46;56.20
29197;BME280;62796;42.654;23.316;2023-06-22T03:25:07;95038.53;;;20.51;56.20
29197;BME280;62796;42.654;23.316;2023-06-22T03:27:39;95033.97;;;20.48;56.38
29197;BME280;62796;42.654;23.316;2023-06-22T03:30:06;95041.34;;;20.51;56.39
29197;BME280;62796;42.654;23.316;2023-06-22T03:32:32;95040.47;;;20.56;56.28
29197;BME280;62796;42.654;23.316;2023-06-22T03:34:58;95043.53;;;20.58;56.34
29197;BME280;62796;42.654;23.316;2023-06-22T03:37:25;95045.47;;;20.63;56.02
29197;BME280;62796;42.654;23.316;2023-06-22T03:39:51;95041.38;;;20.64;56.14
29197;BME280;62796;42.654;23.316;2023-06-22T03:42:16;95047.19;;;20.66;56.45
29197;BME280;62796;42.654;23.316;2023-06-22T03:44:42;95056.31;;;20.72;56.18
29197;BME280;62796;42.654;23.316;2023-06-22T03:47:07;95054.97;;;20.73;56.05
29197;BME280;62796;42.654;23.316;2023-06-22T03:49:33;95053.69;;;20.74;55.86
29197;BME280;62796;42.654;23.316;2023-06-22T03:52:00;95063.66;;;20.75;55.77
29197;BME280;62796;42.654;23.316;2023-06-22T03:54:27;95066.69;;;20.77;55.65
29197;BME280;62796;42.654;23.316;2023-06-22T03:56:53;95063.66;;;20.75;55.68
29197;BME280;62796;42.654;23.316;2023-06-22T03:59:18;95072.09;;;20.75;55.97
29197;BME280;62796;42.654;23.316;2023-06-22T04:01:43;95060.97;;;20.69;56.22
29197;BME280;62796;42.654;23.316;2023-06-22T04:04:09;95056.72;;;20.63;56.74
29197;BME280;62796;42.654;23.316;2023-06-22T04:06:35;95067.97;;;20.63;56.65
29197;BME280;62796;42.654;23.316;2023-06-22T04:09:00;95078.78;;;20.59;56.77
29197;BME280;62796;42.654;23.316;2023-06-22T04:11:26;95063.88;;;20.64;56.44
29197;BME280;62796;42.654;23.316;2023-06-22T04:13:51;95055.31;;;20.69;56.34
29197;BME280;62796;42.654;23.316;2023-06-22T04:16:17;95058.44;;;20.79;56.16
29197;BME280;62796;42.654;23.316;2023-06-22T04:18:42;95055.88;;;20.81;56.26
29197;BME280;62796;42.654;23.316;2023-06-22T04:21:07;95045.47;;;20.89;55.96
29197;BME280;62796;42.654;23.316;2023-06-22T04:23:33;95040.28;;;20.93;55.96
29197;BME280;62796;42.654;23.316;2023-06-22T04:25:58;95036.16;;;20.94;56.15
29197;BME280;62796;42.654;23.316;2023-06-22T04:28:24;95035.81;;;20.97;56.04
29197;BME280;62796;42.654;23.316;2023-06-22T04:30:50;95030.97;;;20.98;56.19
29197;BME280;62796;42.654;23.316;2023-06-22T04:33:16;95024.34;;;21.09;55.91
29197;BME280;62796;42.654;23.316;2023-06-22T04:35:44;95031.41;;;21.15;55.61
29197;BME280;62796;42.654;23.316;2023-06-22T04:38:12;95026.97;;;21.20;55.83
29197;BME280;62796;42.654;23.316;2023-06-22T04:40:38;95036.25;;;21.28;55.61
29197;BME280;62796;42.654;23.316;2023-06-22T04:43:04;95037.22;;;21.30;55.33
29197;BME280;62796;42.654;23.316;2023-06-22T04:45:31;95041.66;;;21.39;55.17
29197;BME280;62796;42.654;23.316;2023-06-22T04:47:57;95030.38;;;21.39;54.86
29197;BME280;62796;42.654;23.316;2023-06-22T04:50:22;95041.50;;;21.58;54.58
29197;BME280;62796;42.654;23.316;2023-06-22T04:52:49;95037.47;;;21.66;54.13
29197;BME280;62796;42.654;23.316;2023-06-22T04:55:14;95030.75;;;21.69;53.73
29197;BME280;62796;42.654;23.316;2023-06-22T04:57:47;95047.06;;;21.84;53.26
29197;BME280;62796;42.654;23.316;2023-06-22T05:00:17;95055.94;;;22.01;52.90
29197;BME280;62796;42.654;23.316;2023-06-22T05:02:45;95055.47;;;22.10;52.63
29197;BME280;62796;42.654;23.316;2023-06-22T05:05:12;95056.75;;;22.09;52.95
29197;BME280;62796;42.654;23.316;2023-06-22T05:07:45;95063.84;;;22.02;52.23
29197;BME280;62796;42.654;23.316;2023-06-22T05:10:14;95057.28;;;22.08;52.34
29197;BME280;62796;42.654;23.316;2023-06-22T05:12:41;95051.13;;;22.09;51.95
29197;BME280;62796;42.654;23.316;2023-06-22T05:15:07;95049.22;;;22.25;51.70
29197;BME280;62796;42.654;23.316;2023-06-22T05:17:33;95056.28;;;22.39;51.40
29197;BME280;62796;42.654;23.316;2023-06-22T05:19:58;95053.19;;;22.29;52.03
29197;BME280;62796;42.654;23.316;2023-06-22T05:22:24;95053.66;;;22.41;52.04
29197;BME280;62796;42.654;23.316;2023-06-22T05:24:49;95054.56;;;22.56;51.61
29197;BME280;62796;42.654;23.316;2023-06-22T05:27:15;95058.91;;;22.57;51.80
29197;BME280;62796;42.654;23.316;2023-06-22T05:29:41;95051.91;;;22.58;51.54
29197;BME280;62796;42.654;23.316;2023-06-22T05:32:08;95056.22;;;22.73;51.13
29197;BME280;62796;42.654;23.316;2023-06-22T05:34:33;95058.94;;;22.86;50.78
29197;BME280;62796;42.654;23.316;2023-06-22T05:36:59;95067.00;;;23.10;50.56
29197;BME280;62796;42.654;23.316;2023-06-22T05:39:25;95065.38;;;23.22;50.13
29197;BME280;62796;42.654;23.316;2023-06-22T05:41:51;95072.94;;;23.27;50.06
29197;BME280;62796;42.654;23.316;2023-06-22T05:44:17;95080.88;;;23.29;50.14
29197;BME280;62796;42.654;23.316;2023-06-22T05:46:44;95089.00;;;23.32;49.62
29197;BME280;62796;42.654;23.316;2023-06-22T05:49:10;95084.84;;;23.33;49.87
29197;BME280;62796;42.654;23.316;2023-06-22T05:51:36;95094.78;;;23.47;49.54
29197;BME280;62796;42.654;23.316;2023-06-22T05:54:01;95096.31;;;23.56;49.25
29197;BME280;62796;42.654;23.316;2023-06-22T05:56:27;95083.19;;;23.74;48.71
29197;BME280;62796;42.654;23.316;2023-06-22T05:58:53;95081.53;;;23.86;48.62
29197;BME280;62796;42.654;23.316;2023-06-22T06:01:18;95089.13;;;24.06;48.59
29197;BME280;62796;42.654;23.316;2023-06-22T06:03:43;95090.88;;;24.16;48.26
29197;BME280;62796;42.654;23.316;2023-06-22T06:06:09;95087.91;;;24.22;48.09
29197;BME280;62796;42.654;23.316;2023-06-22T06:08:37;95086.03;;;24.32;47.46
29197;BME280;62796;42.654;23.316;2023-06-22T06:11:02;95072.66;;;24.48;46.91
29197;BME280;62796;42.654;23.316;2023-06-22T06:13:28;95075.88;;;24.67;47.42
29197;BME280;62796;42.654;23.316;2023-06-22T06:15:53;95070.00;;;24.57;46.35
29197;BME280;62796;42.654;23.316;2023-06-22T06:18:22;95070.53;;;24.41;46.88
29197;BME280;62796;42.654;23.316;2023-06-22T06:20:47;95064.53;;;24.52;46.89
29197;BME280;62796;42.654;23.316;2023-06-22T06:23:12;95069.63;;;24.46;46.76
29197;BME280;62796;42.654;23.316;2023-06-22T06:25:38;95065.66;;;24.41;47.25
29197;BME280;62796;42.654;23.316;2023-06-22T06:28:03;95071.72;;;24.60;46.71
29197;BME280;62796;42.654;23.316;2023-06-22T06:30:30;95068.53;;;24.87;46.51
29197;BME280;62796;42.654;23.316;2023-06-22T06:32:55;95074.72;;;25.00;46.38
29197;BME280;62796;42.654;23.316;2023-06-22T06:35:20;95074.31;;;25.26;45.87
29197;BME280;62796;42.654;23.316;2023-06-22T06:37:48;95074.84;;;25.40;45.26
29197;BME280;62796;42.654;23.316;2023-06-22T06:40:15;95077.34;;;25.21;44.81
29197;BME280;62796;42.654;23.316;2023-06-22T06:42:42;95071.31;;;25.17;45.31
29197;BME280;62796;42.654;23.316;2023-06-22T06:45:12;95067.13;;;25.25;45.25
29197;BME280;62796;42.654;23.316;2023-06-22T06:47:39;95055.06;;;25.17;45.84
29197;BME280;62796;42.654;23.316;2023-06-22T06:50:05;95053.47;;;25.39;45.60
29197;BME280;62796;42.654;23.316;2023-06-22T06:52:31;95060.63;;;25.63;45.59
29197;BME280;62796;42.654;23.316;2023-06-22T06:54:56;95042.09;;;25.62;45.11
29197;BME280;62796;42.654;23.316;2023-06-22T06:57:22;95041.34;;;25.61;45.41
29197;BME280;62796;42.654;23.316;2023-06-22T06:59:48;95044.50;;;25.80;45.62
29197;BME280;62796;42.654;23.316;2023-06-22T07:02:14;95054.81;;;25.93;46.03
29197;BME280;62796;42.654;23.316;2023-06-22T07:04:40;95049.81;;;26.09;45.05
29197;BME280;62796;42.654;23.316;2023-06-22T07:07:05;95040.25;;;26.29;44.87
29197;BME280;62796;42.654;23.316;2023-06-22T07:09:31;95044.13;;;26.41;44.08
29197;BME280;62796;42.654;23.316;2023-06-22T07:11:56;95052.38;;;26.54;44.20
29197;BME280;62796;42.654;23.316;2023-06-22T07:14:21;95053.66;;;26.85;43.01
29197;BME280;62796;42.654;23.316;2023-06-22T07:16:47;95046.28;;;26.82;42.77
29197;BME280;62796;42.654;23.316;2023-06-22T07:19:12;95045.50;;;26.89;42.79
29197;BME280;62796;42.654;23.316;2023-06-22T07:21:38;95050.34;;;26.97;42.50
29197;BME280;62796;42.654;23.316;2023-06-22T07:24:05;95047.78;;;27.08;42.14
29197;BME280;62796;42.654;23.316;2023-06-22T07:26:31;95046.88;;;27.23;42.74
29197;BME280;62796;42.654;23.316;2023-06-22T07:28:57;95045.84;;;27.11;42.01
29197;BME280;62796;42.654;23.316;2023-06-22T07:31:24;95050.25;;;27.46;40.64
29197;BME280;62796;42.654;23.316;2023-06-22T07:33:49;95043.63;;;27.61;40.85
29197;BME280;62796;42.654;23.316;2023-06-22T07:36:16;95047.88;;;27.86;40.28
29197;BME280;62796;42.654;23.316;2023-06-22T07:38:42;95047.34;;;27.97;40.15
29197;BME280;62796;42.654;23.316;2023-06-22T07:41:07;95054.69;;;28.18;39.81
29197;BME280;62796;42.654;23.316;2023-06-22T07:43:33;95047.66;;;28.45;39.11
29197;BME280;62796;42.654;23.316;2023-06-22T07:46:02;95050.94;;;28.42;39.19
29197;BME280;62796;42.654;23.316;2023-06-22T07:48:28;95050.28;;;28.61;38.39
29197;BME280;62796;42.654;23.316;2023-06-22T07:50:53;95054.75;;;28.27;39.23
29197;BME280;62796;42.654;23.316;2023-06-22T07:53:20;95052.22;;;28.58;38.92
29197;BME280;62796;42.654;23.316;2023-06-22T07:55:45;95046.78;;;28.89;38.93
29197;BME280;62796;42.654;23.316;2023-06-22T07:58:11;95053.00;;;29.04;37.94
29197;BME280;62796;42.654;23.316;2023-06-22T08:00:36;95052.56;;;29.08;38.37
29197;BME280;62796;42.654;23.316;2023-06-22T08:03:02;95050.97;;;29.34;37.89
29197;BME280;62796;42.654;23.316;2023-06-22T08:05:30;95046.16;;;29.27;37.93
29197;BME280;62796;42.654;23.316;2023-06-22T08:07:56;95045.97;;;29.15;38.39
29197;BME280;62796;42.654;23.316;2023-06-22T08:10:21;95043.13;;;29.25;38.25
29197;BME280;62796;42.654;23.316;2023-06-22T08:12:46;95039.13;;;29.47;37.57
29197;BME280;62796;42.654;23.316;2023-06-22T08:15:12;95041.69;;;29.62;37.28
29197;BME280;62796;42.654;23.316;2023-06-22T08:17:38;95028.56;;;29.30;37.74
29197;BME280;62796;42.654;23.316;2023-06-22T08:20:05;95039.25;;;29.30;37.77
29197;BME280;62796;42.654;23.316;2023-06-22T08:22:37;95032.97;;;29.41;37.93
29197;BME280;62796;42.654;23.316;2023-06-22T08:25:03;95025.75;;;29.40;37.89
29197;BME280;62796;42.654;23.316;2023-06-22T08:27:30;95028.13;;;29.72;38.36
29197;BME280;62796;42.654;23.316;2023-06-22T08:29:57;95024.25;;;29.68;38.33
29197;BME280;62796;42.654;23.316;2023-06-22T08:32:27;95024.25;;;29.58;38.48
29197;BME280;62796;42.654;23.316;2023-06-22T08:34:54;95022.44;;;29.72;37.54
29197;BME280;62796;42.654;23.316;2023-06-22T08:37:20;95021.81;;;30.02;36.86
29197;BME280;62796;42.654;23.316;2023-06-22T08:39:46;95023.44;;;30.15;36.32
29197;BME280;62796;42.654;23.316;2023-06-22T08:42:12;95026.06;;;29.82;37.50
29197;BME280;62796;42.654;23.316;2023-06-22T08:44:37;95035.22;;;29.61;37.80
29197;BME280;62796;42.654;23.316;2023-06-22T08:47:03;95033.88;;;29.82;37.21
29197;BME280;62796;42.654;23.316;2023-06-22T08:49:28;95038.81;;;30.00;37.49
29197;BME280;62796;42.654;23.316;2023-06-22T08:51:54;95033.88;;;29.91;38.05
29197;BME280;62796;42.654;23.316;2023-06-22T08:54:21;95031.16;;;29.74;38.34
29197;BME280;62796;42.654;23.316;2023-06-22T08:56:46;95023.66;;;29.88;37.71
29197;BME280;62796;42.654;23.316;2023-06-22T08:59:12;95029.59;;;30.21;36.91
29197;BME280;62796;42.654;23.316;2023-06-22T09:01:37;95012.69;;;30.54;36.05
29197;BME280;62796;42.654;23.316;2023-06-22T09:04:02;95010.91;;;30.49;36.71
29197;BME280;62796;42.654;23.316;2023-06-22T09:06:31;95005.44;;;30.53;35.19
29197;BME280;62796;42.654;23.316;2023-06-22T09:08:56;94997.97;;;30.48;34.89
29197;BME280;62796;42.654;23.316;2023-06-22T09:11:24;95001.72;;;30.50;34.06
29197;BME280;62796;42.654;23.316;2023-06-22T09:13:50;95003.53;;;30.46;34.26
29197;BME280;62796;42.654;23.316;2023-06-22T09:16:17;95003.03;;;30.59;33.71
29197;BME280;62796;42.654;23.316;2023-06-22T09:18:42;95009.94;;;30.96;32.23
29197;BME280;62796;42.654;23.316;2023-06-22T09:21:08;95011.25;;;31.26;30.52
29197;BME280;62796;42.654;23.316;2023-06-22T09:23:34;95010.47;;;31.56;30.10
29197;BME280;62796;42.654;23.316;2023-06-22T09:25:59;95008.66;;;31.72;30.01
29197;BME280;62796;42.654;23.316;2023-06-22T09:28:24;95008.06;;;31.74;30.24
29197;BME280;62796;42.654;23.316;2023-06-22T09:30:50;95011.56;;;31.84;30.23
29197;BME280;62796;42.654;23.316;2023-06-22T09:33:16;95014.69;;;31.55;29.70
29197;BME280;62796;42.654;23.316;2023-06-22T09:35:41;95021.63;;;31.52;30.10
29197;BME280;62796;42.654;23.316;2023-06-22T09:38:07;95018.97;;;31.66;29.99
29197;BME280;62796;42.654;23.316;2023-06-22T09:40:32;95010.00;;;31.60;30.65
29197;BME280;62796;42.654;23.316;2023-06-22T09:43:05;95014.63;;;31.98;29.96
29197;BME280;62796;42.654;23.316;2023-06-22T09:45:30;95024.41;;;31.83;29.29
29197;BME280;62796;42.654;23.316;2023-06-22T09:47:55;95013.50;;;31.27;29.96
29197;BME280;62796;42.654;23.316;2023-06-22T09:50:21;95010.44;;;31.14;30.53
29197;BME280;62796;42.654;23.316;2023-06-22T09:52:46;95012.09;;;31.38;30.92
29197;BME280;62796;42.654;23.316;2023-06-22T09:55:16;95013.34;;;31.04;31.45
29197;BME280;62796;42.654;23.316;2023-06-22T09:57:41;95003.22;;;30.82;31.68
29197;BME280;62796;42.654;23.316;2023-06-22T10:00:07;95001.50;;;31.19;30.69
29197;BME280;62796;42.654;23.316;2023-06-22T10:02:38;94996.53;;;31.20;30.42
29197;BME280;62796;42.654;23.316;2023-06-22T10:05:04;94989.94;;;31.39;30.76
29197;BME280;62796;42.654;23.316;2023-06-22T10:07:29;94997.88;;;31.83;29.93
29197;BME280;62796;42.654;23.316;2023-06-22T10:09:55;94990.75;;;32.05;29.21
29197;BME280;62796;42.654;23.316;2023-06-22T10:12:20;94981.28;;;32.70;28.74
29197;BME280;62796;42.654;23.316;2023-06-22T10:14:46;94984.34;;;33.20;28.18
29197;BME280;62796;42.654;23.316;2023-06-22T10:17:11;94996.03;;;33.48;27.06
29197;BME280;62796;42.654;23.316;2023-06-22T10:19:36;94985.81;;;33.45;26.78
29197;BME280;62796;42.654;23.316;2023-06-22T10:22:04;94981.72;;;33.73;27.17
29197;BME280;62796;42.654;23.316;2023-06-22T10:24:29;94982.47;;;34.10;26.21
29197;BME280;62796;42.654;23.316;2023-06-22T10:26:55;94987.88;;;34.43;25.43
29197;BME280;62796;42.654;23.316;2023-06-22T10:29:20;94988.25;;;34.63;24.47
29197;BME280;62796;42.654;23.316;2023-06-22T10:31:46;94982.50;;;34.63;24.38
29197;BME280;62796;42.654;23.316;2023-06-22T10:34:11;94985.69;;;34.69;24.42
29197;BME280;62796;42.654;23.316;2023-06-22T10:36:36;94978.16;;;34.89;24.17
29197;BME280;62796;42.654;23.316;2023-06-22T10:39:02;94980.81;;;34.85;22.92
29197;BME280;62796;42.654;23.316;2023-06-22T10:41:28;94974.63;;;34.77;23.96
29197;BME280;62796;42.654;23.316;2023-06-22T10:43:55;94973.03;;;34.87;24.23
29197;BME280;62796;42.654;23.316;2023-06-22T10:46:21;94973.78;;;34.88;24.24
29197;BME280;62796;42.654;23.316;2023-06-22T10:48:46;94960.81;;;35.14;24.77
29197;BME280;62796;42.654;23.316;2023-06-22T10:51:11;94962.50;;;35.19;24.16
29197;BME280;62796;42.654;23.316;2023-06-22T10:53:37;94962.31;;;35.15;24.35
29197;BME280;62796;42.654;23.316;2023-06-22T10:56:02;94963.78;;;35.16;24.44
29197;BME280;62796;42.654;23.316;2023-06-22T10:58:28;94957.81;;;35.26;24.59
29197;BME280;62796;42.654;23.316;2023-06-22T11:00:53;94960.16;;;35.29;24.09
29197;BME280;62796;42.654;23.316;2023-06-22T11:03:19;94957.09;;;35.54;23.91
29197;BME280;62796;42.654;23.316;2023-06-22T11:05:44;94948.59;;;35.57;24.14
29197;BME280;62796;42.654;23.316;2023-06-22T11:08:09;94951.97;;;35.67;23.96
29197;BME280;62796;42.654;23.316;2023-06-22T11:10:35;94952.22;;;35.57;23.01
29197;BME280;62796;42.654;23.316;2023-06-22T11:13:00;94952.75;;;35.40;23.51
29197;BME280;62796;42.654;23.316;2023-06-22T11:15:27;94956.69;;;35.46;23.22
29197;BME280;62796;42.654;23.316;2023-06-22T11:17:53;94959.25;;;35.40;23.73
29197;BME280;62796;42.654;23.316;2023-06-22T11:20:18;94942.19;;;35.44;24.36
29197;BME280;62796;42.654;23.316;2023-06-22T11:22:44;94941.09;;;35.51;23.81
29197;BME280;62796;42.654;23.316;2023-06-22T11:25:10;94931.66;;;35.35;23.30
29197;BME280;62796;42.654;23.316;2023-06-22T11:27:37;94934.84;;;35.28;23.84
29197;BME280;62796;42.654;23.316;2023-06-22T11:30:03;94942.38;;;35.48;23.23
29197;BME280;62796;42.654;23.316;2023-06-22T11:32:29;94936.44;;;35.44;23.14
29197;BME280;62796;42.654;23.316;2023-06-22T11:34:55;94932.38;;;35.49;23.86
29197;BME280;62796;42.654;23.316;2023-06-22T11:37:20;94928.78;;;35.35;23.85
29197;BME280;62796;42.654;23.316;2023-06-22T11:39:45;94926.56;;;35.20;23.80
29197;BME280;62796;42.654;23.316;2023-06-22T11:42:11;94936.38;;;34.88;23.72
29197;BME280;62796;42.654;23.316;2023-06-22T11:44:36;94935.19;;;34.66;23.81
29197;BME280;62796;42.654;23.316;2023-06-22T11:47:02;94932.91;;;34.51;24.64
29197;BME280;62796;42.654;23.316;2023-06-22T11:49:31;94925.56;;;34.47;24.13
29197;BME280;62796;42.654;23.316;2023-06-22T11:51:56;94919.66;;;34.18;24.92
29197;BME280;62796;42.654;23.316;2023-06-22T11:54:21;94917.81;;;34.11;25.24
29197;BME280;62796;42.654;23.316;2023-06-22T11:56:47;94919.41;;;34.14;24.65
29197;BME280;62796;42.654;23.316;2023-06-22T11:59:12;94913.81;;;33.91;25.03
29197;BME280;62796;42.654;23.316;2023-06-22T12:01:38;94920.94;;;33.90;25.08
29197;BME280;62796;42.654;23.316;2023-06-22T12:04:04;94924.75;;;33.81;24.93
29197;BME280;62796;42.654;23.316;2023-06-22T12:06:31;94924.75;;;33.81;25.01
29197;BME280;62796;42.654;23.316;2023-06-22T12:08:57;94925.31;;;33.66;25.63
29197;BME280;62796;42.654;23.316;2023-06-22T12:11:22;94921.59;;;33.52;27.38
29197;BME280;62796;42.654;23.316;2023-06-22T12:13:48;94931.34;;;33.47;27.87
29197;BME280;62796;42.654;23.316;2023-06-22T12:16:13;94930.97;;;33.15;27.77
29197;BME280;62796;42.654;23.316;2023-06-22T12:18:38;94941.94;;;33.07;28.30
29197;BME280;62796;42.654;23.316;2023-06-22T12:21:04;94936.22;;;33.07;28.35
29197;BME280;62796;42.654;23.316;2023-06-22T12:23:29;94930.25;;;32.80;29.63
29197;BME280;62796;42.654;23.316;2023-06-22T12:25:55;94933.38;;;32.61;30.33
29197;BME280;62796;42.654;23.316;2023-06-22T12:28:20;94935.47;;;32.49;31.74
29197;BME280;62796;42.654;23.316;2023-06-22T12:30:46;94940.19;;;32.09;32.55
29197;BME280;62796;42.654;23.316;2023-06-22T12:33:11;94944.22;;;31.83;33.05
29197;BME280;62796;42.654;23.316;2023-06-22T12:35:36;94960.22;;;31.65;34.17
29197;BME280;62796;42.654;23.316;2023-06-22T12:38:02;94968.81;;;31.44;35.30
29197;BME280;62796;42.654;23.316;2023-06-22T12:40:28;94966.91;;;31.15;36.00
29197;BME280;62796;42.654;23.316;2023-06-22T12:42:53;94970.91;;;31.01;37.03
29197;BME280;62796;42.654;23.316;2023-06-22T12:45:19;94980.44;;;30.63;38.30
29197;BME280;62796;42.654;23.316;2023-06-22T12:47:46;94969.72;;;30.33;40.13
29197;BME280;62796;42.654;23.316;2023-06-22T12:50:12;94980.19;;;29.99;41.80
29197;BME280;62796;42.654;23.316;2023-06-22T12:52:39;94982.47;;;29.72;41.01
29197;BME280;62796;42.654;23.316;2023-06-22T12:55:06;94991.22;;;29.84;41.05
29197;BME280;62796;42.654;23.316;2023-06-22T12:57:32;95002.88;;;29.78;41.56